Time;durP1;ratioP1;P1;durP2;ratioP2;P2;SDS_P1;SDS_P2;PMS_P1;PMS_P2;Temp;Humidity;BMP_temperature;BMP_pressure;BME280_temperature;BME280_humidity;BME280_pressure;Samples;Min_cycle;Max_cycle;Signal;HPM_P1;HPM_P2
2022/10/20 00:01:09;;;;;;;23.13;15.27;;;;;;;;;;5152970;27;20796;-71
2022/10/20 00:03:37;;;;;;;26.47;15.03;;;;;;;;;;5153725;27;20454;-71
2022/10/20 00:06:07;;;;;;;22.30;13.93;;;;;;;;;;5154511;27;20474;-71
2022/10/20 00:08:34;;;;;;;26.20;14.87;;;;;;;;;;5154347;27;20454;-71
2022/10/20 00:11:02;;;;;;;24.33;14.23;;;;;;;;;;5154110;27;20483;-71
2022/10/20 00:13:29;;;;;;;30.77;14.90;;;;;;;;;;5153713;27;20450;-71
2022/10/20 00:15:59;;;;;;;26.80;14.07;;;;;;;;;;5154033;27;20468;-71
2022/10/20 00:18:26;;;;;;;24.63;15.70;;;;;;;;;;5154191;27;20448;-71
2022/10/20 00:20:53;;;;;;;22.83;15.73;;;;;;;;;;5154386;27;20815;-71
2022/10/20 00:23:21;;;;;;;21.63;14.37;;;;;;;;;;5154120;27;20443;-72
2022/10/20 00:25:48;;;;;;;21.17;13.87;;;;;;;;;;5153618;27;20469;-71
2022/10/20 00:28:15;;;;;;;18.37;12.53;;;;;;;;;;5154332;27;20451;-71
2022/10/20 00:30:42;;;;;;;24.93;14.17;;;;;;;;;;5154053;27;20480;-71
2022/10/20 00:33:11;;;;;;;24.90;14.63;;;;;;;;;;5154188;27;20451;-71
2022/10/20 00:35:39;;;;;;;18.77;13.90;;;;;;;;;;5155457;27;20463;-71
2022/10/20 00:38:06;;;;;;;24.00;13.73;;;;;;;;;;5158290;27;20443;-71
2022/10/20 00:40:33;;;;;;;22.00;15.13;;;;;;;;;;5158085;27;20440;-71
2022/10/20 00:43:00;;;;;;;19.10;11.80;;;;;;;;;;5156527;27;20813;-71
2022/10/20 00:45:27;;;;;;;22.67;13.33;;;;;;;;;;5157241;27;20479;-71
2022/10/20 00:47:56;;;;;;;30.67;13.40;;;;;;;;;;5158086;27;20457;-71
2022/10/20 00:50:26;;;;;;;26.40;15.40;;;;;;;;;;5157907;27;20493;-71
2022/10/20 00:52:54;;;;;;;18.67;13.63;;;;;;;;;;5157941;27;20455;-71
2022/10/20 00:55:23;;;;;;;24.60;13.50;;;;;;;;;;5156885;27;20467;-71
2022/10/20 00:57:51;;;;;;;20.30;12.73;;;;;;;;;;5157728;27;20443;-71
2022/10/20 01:00:18;;;;;;;20.00;13.03;;;;;;;;;;5156287;27;20447;-71
2022/10/20 01:02:46;;;;;;;24.43;11.60;;;;;;;;;;5157851;27;20447;-71
2022/10/20 01:05:13;;;;;;;18.30;12.03;;;;;;;;;;5156928;27;20850;-71
2022/10/20 01:07:42;;;;;;;24.13;12.60;;;;;;;;;;5157467;27;20447;-71
2022/10/20 01:10:09;;;;;;;16.33;9.77;;;;;;;;;;5157504;27;20451;-70
2022/10/20 01:12:39;;;;;;;19.53;10.77;;;;;;;;;;5157415;27;20455;-71
2022/10/20 01:15:09;;;;;;;18.97;10.53;;;;;;;;;;5157073;27;20550;-71
2022/10/20 01:17:42;;;;;;;12.20;8.90;;;;;;;;;;5157542;27;20504;-71
2022/10/20 01:20:36;;;;;;;20.57;12.17;;;;;;;;;;5157395;27;20439;-71
2022/10/20 01:23:35;;;;;;;21.93;12.07;;;;;;;;;;5157511;27;20824;-70
2022/10/20 01:26:14;;;;;;;18.93;10.90;;;;;;;;;;5157112;27;20476;-71
2022/10/20 01:28:43;;;;;;;19.80;11.37;;;;;;;;;;5157115;27;20958;-71
2022/10/20 01:31:14;;;;;;;16.97;10.67;;;;;;;;;;5157140;27;20487;-71
2022/10/20 01:33:43;;;;;;;21.57;10.97;;;;;;;;;;5156440;27;20891;-71
2022/10/20 01:36:14;;;;;;;17.77;11.67;;;;;;;;;;5157076;27;20470;-71
2022/10/20 01:38:43;;;;;;;20.03;12.17;;;;;;;;;;5156888;27;20444;-71
2022/10/20 01:41:13;;;;;;;15.10;11.07;;;;;;;;;;5156748;27;20448;-71
2022/10/20 01:43:42;;;;;;;16.17;12.50;;;;;;;;;;5154399;27;20446;-71
2022/10/20 01:46:12;;;;;;;20.20;10.50;;;;;;;;;;5156856;27;20474;-71
2022/10/20 01:48:40;;;;;;;17.33;11.20;;;;;;;;;;5156818;27;20447;-71
2022/10/20 01:51:07;;;;;;;13.80;10.80;;;;;;;;;;5156852;27;20479;-70
2022/10/20 01:53:34;;;;;;;15.50;11.03;;;;;;;;;;5155869;27;20466;-71
2022/10/20 01:56:02;;;;;;;11.70;9.13;;;;;;;;;;5156597;27;20490;-71
2022/10/20 01:58:48;;;;;;;18.40;10.47;;;;;;;;;;5156582;27;20447;-70
2022/10/20 02:01:18;;;;;;;13.80;10.40;;;;;;;;;;5155611;27;20447;-71
2022/10/20 02:03:52;;;;;;;20.03;9.77;;;;;;;;;;5155816;27;20447;-72
2022/10/20 02:06:25;;;;;;;20.30;10.70;;;;;;;;;;5156427;27;20476;-71
2022/10/20 02:08:54;;;;;;;15.90;9.13;;;;;;;;;;5156418;27;20815;-71
2022/10/20 02:11:25;;;;;;;18.20;10.47;;;;;;;;;;5156210;27;20480;-71
2022/10/20 02:13:53;;;;;;;16.60;9.70;;;;;;;;;;5155614;27;20818;-71
2022/10/20 02:16:24;;;;;;;14.73;10.40;;;;;;;;;;5156151;27;20471;-71
2022/10/20 02:18:51;;;;;;;20.33;10.63;;;;;;;;;;5156153;27;20452;-71
2022/10/20 02:21:19;;;;;;;16.20;9.93;;;;;;;;;;5156165;27;20446;-71
2022/10/20 02:23:48;;;;;;;14.63;8.60;;;;;;;;;;5155339;27;20455;-72
2022/10/20 02:26:15;;;;;;;12.13;8.57;;;;;;;;;;5155986;27;20479;-70
2022/10/20 02:28:44;;;;;;;11.50;7.70;;;;;;;;;;5155917;27;20460;-71
2022/10/20 02:31:12;;;;;;;11.63;8.30;;;;;;;;;;5155862;27;20479;-71
2022/10/20 02:33:40;;;;;;;15.50;9.00;;;;;;;;;;5155291;27;20447;-71
2022/10/20 02:36:13;;;;;;;16.17;9.50;;;;;;;;;;5155762;27;20847;-71
2022/10/20 02:38:40;;;;;;;12.00;8.20;;;;;;;;;;5155875;27;20456;-71
2022/10/20 02:41:07;;;;;;;10.43;7.10;;;;;;;;;;5155850;27;20440;-70
2022/10/20 02:43:34;;;;;;;11.17;8.07;;;;;;;;;;5152526;27;20452;-71
2022/10/20 02:46:01;;;;;;;15.50;8.37;;;;;;;;;;5155594;27;20478;-71
2022/10/20 02:48:28;;;;;;;13.67;8.50;;;;;;;;;;5155730;27;20452;-71
2022/10/20 02:50:57;;;;;;;9.10;7.40;;;;;;;;;;5155667;27;20447;-71
2022/10/20 02:53:25;;;;;;;17.90;8.53;;;;;;;;;;5155334;27;20454;-71
2022/10/20 02:55:52;;;;;;;18.10;10.57;;;;;;;;;;5155105;27;20471;-71
2022/10/20 02:58:19;;;;;;;14.10;8.03;;;;;;;;;;5154737;27;20948;-71
2022/10/20 03:00:49;;;;;;;14.40;8.60;;;;;;;;;;5154337;27;20452;-71
2022/10/20 03:03:16;;;;;;;14.60;8.50;;;;;;;;;;5155495;27;20474;-71
2022/10/20 03:05:43;;;;;;;19.93;9.17;;;;;;;;;;5154666;27;20534;-71
2022/10/20 03:08:12;;;;;;;16.00;9.30;;;;;;;;;;5155247;27;20954;-71
2022/10/20 03:10:40;;;;;;;11.47;8.80;;;;;;;;;;5155054;27;20452;-71
2022/10/20 03:13:07;;;;;;;14.87;9.80;;;;;;;;;;5155172;27;20483;-71
2022/10/20 03:15:35;;;;;;;14.77;8.87;;;;;;;;;;5154331;27;20487;-71
2022/10/20 03:18:02;;;;;;;11.17;8.03;;;;;;;;;;5155189;27;20448;-71
2022/10/20 03:20:29;;;;;;;16.60;7.77;;;;;;;;;;5155025;27;20924;-71
2022/10/20 03:22:56;;;;;;;13.50;8.80;;;;;;;;;;5155101;27;20436;-71
2022/10/20 03:25:25;;;;;;;11.27;8.43;;;;;;;;;;5154158;27;20475;-71
2022/10/20 03:27:52;;;;;;;15.80;7.97;;;;;;;;;;5154851;27;20804;-71
2022/10/20 03:30:19;;;;;;;22.17;8.10;;;;;;;;;;5154789;27;20458;-71
2022/10/20 03:32:46;;;;;;;10.80;8.27;;;;;;;;;;5154597;27;20495;-71
2022/10/20 03:35:13;;;;;;;14.50;7.40;;;;;;;;;;5154215;27;20476;-71
2022/10/20 03:37:40;;;;;;;12.10;8.53;;;;;;;;;;5154661;27;20442;-71
2022/10/20 03:40:08;;;;;;;14.00;9.43;;;;;;;;;;5154759;27;20454;-71
2022/10/20 03:42:36;;;;;;;13.37;8.60;;;;;;;;;;5152064;27;20451;-71
2022/10/20 03:45:04;;;;;;;13.53;7.73;;;;;;;;;;5154034;27;20491;-71
2022/10/20 03:47:31;;;;;;;26.33;10.73;;;;;;;;;;5154644;27;20448;-71
2022/10/20 03:49:58;;;;;;;17.23;8.40;;;;;;;;;;5154812;27;20458;-71
2022/10/20 03:52:25;;;;;;;13.33;8.23;;;;;;;;;;5154415;27;20487;-71
2022/10/20 03:54:52;;;;;;;16.43;9.10;;;;;;;;;;5153853;27;20447;-71
2022/10/20 03:57:20;;;;;;;14.10;9.10;;;;;;;;;;5154492;27;20443;-71
2022/10/20 03:59:48;;;;;;;15.60;10.17;;;;;;;;;;5153528;27;20451;-71
2022/10/20 04:02:23;;;;;;;8.93;7.77;;;;;;;;;;5154578;27;21029;-71
2022/10/20 04:04:50;;;;;;;18.67;10.17;;;;;;;;;;5153527;27;20959;-71
2022/10/20 04:07:17;;;;;;;15.60;9.40;;;;;;;;;;5154414;27;20446;-71
2022/10/20 04:09:44;;;;;;;12.27;9.20;;;;;;;;;;5155070;27;20451;-71
2022/10/20 04:12:11;;;;;;;13.13;9.07;;;;;;;;;;5158639;27;20483;-71
2022/10/20 04:14:39;;;;;;;17.43;8.93;;;;;;;;;;5157856;27;20448;-71
2022/10/20 04:17:08;;;;;;;11.30;8.63;;;;;;;;;;5158700;27;20447;-71
2022/10/20 04:19:35;;;;;;;19.87;9.03;;;;;;;;;;5158427;27;20448;-71
2022/10/20 04:22:02;;;;;;;15.90;10.53;;;;;;;;;;5158582;27;20470;-70
2022/10/20 04:24:29;;;;;;;20.03;10.87;;;;;;;;;;5157714;27;20443;-71
2022/10/20 04:26:56;;;;;;;11.80;9.00;;;;;;;;;;5158324;27;20470;-71
2022/10/20 04:29:23;;;;;;;13.43;8.43;;;;;;;;;;5158425;27;20812;-71
2022/10/20 04:31:51;;;;;;;18.90;9.63;;;;;;;;;;5158127;27;20483;-71
2022/10/20 04:34:19;;;;;;;11.17;8.47;;;;;;;;;;5157554;27;20454;-71
2022/10/20 04:36:46;;;;;;;12.73;9.67;;;;;;;;;;5158063;27;20479;-71
2022/10/20 04:39:13;;;;;;;12.80;8.63;;;;;;;;;;5158258;27;20443;-71
2022/10/20 04:41:41;;;;;;;9.17;7.97;;;;;;;;;;5158146;27;20807;-71
2022/10/20 04:44:08;;;;;;;13.00;10.47;;;;;;;;;;5154911;27;20443;-72
2022/10/20 04:46:35;;;;;;;18.13;9.37;;;;;;;;;;5157882;27;20481;-71
2022/10/20 04:49:02;;;;;;;11.37;8.23;;;;;;;;;;5158160;27;20447;-71
2022/10/20 04:51:30;;;;;;;11.40;8.17;;;;;;;;;;5157968;27;20448;-71
2022/10/20 04:53:58;;;;;;;16.50;9.00;;;;;;;;;;5157492;27;20830;-71
2022/10/20 04:56:25;;;;;;;12.30;8.30;;;;;;;;;;5157730;27;20471;-71
2022/10/20 04:58:53;;;;;;;14.07;8.70;;;;;;;;;;5157648;27;20808;-71
2022/10/20 05:01:20;;;;;;;16.37;9.50;;;;;;;;;;5156149;27;20443;-71
2022/10/20 05:03:48;;;;;;;12.60;8.27;;;;;;;;;;5157076;27;20450;-71
2022/10/20 05:06:16;;;;;;;9.97;7.23;;;;;;;;;;5157115;27;20471;-71
2022/10/20 05:08:46;;;;;;;25.80;9.07;;;;;;;;;;5157216;27;20451;-71
2022/10/20 05:11:13;;;;;;;19.40;9.03;;;;;;;;;;5156873;27;20516;-71
2022/10/20 05:13:41;;;;;;;13.07;8.27;;;;;;;;;;5156161;27;20509;-72
2022/10/20 05:16:08;;;;;;;17.67;9.90;;;;;;;;;;5156895;27;20932;-71
2022/10/20 05:18:36;;;;;;;18.60;9.87;;;;;;;;;;5156841;27;20443;-71
2022/10/20 05:21:06;;;;;;;17.13;11.03;;;;;;;;;;5156312;27;20444;-71
2022/10/20 05:23:33;;;;;;;15.70;9.87;;;;;;;;;;5156255;27;20444;-71
2022/10/20 05:26:03;;;;;;;20.87;10.50;;;;;;;;;;5156495;27;20506;-71
2022/10/20 05:28:31;;;;;;;16.03;10.07;;;;;;;;;;5156786;27;20450;-71
2022/10/20 05:31:01;;;;;;;17.47;11.07;;;;;;;;;;5156850;27;20463;-71
2022/10/20 05:33:28;;;;;;;17.73;9.33;;;;;;;;;;5155856;27;20490;-72
2022/10/20 05:35:55;;;;;;;29.43;10.93;;;;;;;;;;5156620;27;20972;-71
2022/10/20 05:38:22;;;;;;;12.30;9.87;;;;;;;;;;5156556;27;20877;-71
2022/10/20 05:40:49;;;;;;;17.57;10.53;;;;;;;;;;5156674;27;20818;-71
2022/10/20 05:43:18;;;;;;;17.03;9.57;;;;;;;;;;5154019;27;20452;-71
2022/10/20 05:45:45;;;;;;;23.43;10.23;;;;;;;;;;5155946;27;20477;-71
2022/10/20 05:48:12;;;;;;;15.53;10.63;;;;;;;;;;5156529;27;20794;-71
2022/10/20 05:50:39;;;;;;;13.20;9.30;;;;;;;;;;5156400;27;20448;-71
2022/10/20 05:53:06;;;;;;;8.43;7.23;;;;;;;;;;5156377;27;20479;-71
2022/10/20 05:55:34;;;;;;;9.83;7.83;;;;;;;;;;5155564;27;21014;-71
2022/10/20 05:58:01;;;;;;;9.17;7.87;;;;;;;;;;5156411;27;20450;-71
2022/10/20 06:00:31;;;;;;;14.60;8.13;;;;;;;;;;5154711;27;20443;-71
2022/10/20 06:02:58;;;;;;;13.63;8.37;;;;;;;;;;5156439;27;20813;-71
2022/10/20 06:05:25;;;;;;;10.33;7.23;;;;;;;;;;5155279;27;20470;-71
2022/10/20 06:07:54;;;;;;;13.70;7.07;;;;;;;;;;5156033;27;20451;-71
2022/10/20 06:10:21;;;;;;;11.77;8.10;;;;;;;;;;5155995;27;20514;-71
2022/10/20 06:12:48;;;;;;;12.30;8.17;;;;;;;;;;5155841;27;20898;-71
2022/10/20 06:15:15;;;;;;;11.13;7.43;;;;;;;;;;5155139;27;20470;-70
2022/10/20 06:17:47;;;;;;;10.10;6.17;;;;;;;;;;5155562;27;20470;-71
2022/10/20 06:20:14;;;;;;;8.83;7.00;;;;;;;;;;5155552;27;20481;-71
2022/10/20 06:22:41;;;;;;;13.83;6.80;;;;;;;;;;5155521;27;20461;-71
2022/10/20 06:25:08;;;;;;;9.47;7.30;;;;;;;;;;5154899;27;20463;-70
2022/10/20 06:27:35;;;;;;;9.50;6.10;;;;;;;;;;5155447;27;20786;-71
2022/10/20 06:30:03;;;;;;;8.10;6.57;;;;;;;;;;5155425;27;20443;-71
2022/10/20 06:32:30;;;;;;;10.13;6.50;;;;;;;;;;5154407;27;20490;-71
2022/10/20 06:34:58;;;;;;;9.73;5.50;;;;;;;;;;5154529;27;20444;-71
2022/10/20 06:37:25;;;;;;;6.67;5.63;;;;;;;;;;5155398;27;20461;-71
2022/10/20 06:39:52;;;;;;;14.47;5.50;;;;;;;;;;5155257;27;20958;-71
2022/10/20 06:42:20;;;;;;;7.93;6.70;;;;;;;;;;5152936;27;20440;-71
2022/10/20 06:44:47;;;;;;;13.43;8.03;;;;;;;;;;5154114;27;20955;-71
2022/10/20 06:47:14;;;;;;;6.67;6.00;;;;;;;;;;5155077;27;20458;-71
2022/10/20 06:49:41;;;;;;;10.10;6.87;;;;;;;;;;5154933;27;20458;-71
2022/10/20 06:52:10;;;;;;;12.10;7.47;;;;;;;;;;5155069;27;20967;-71
2022/10/20 06:54:37;;;;;;;9.20;7.10;;;;;;;;;;5154426;27;21000;-71
2022/10/20 06:57:04;;;;;;;22.83;14.60;;;;;;;;;;5154943;27;20453;-71
2022/10/20 06:59:32;;;;;;;10.43;7.60;;;;;;;;;;5153463;27;20448;-72
2022/10/20 07:02:00;;;;;;;12.20;6.90;;;;;;;;;;5154920;27;20467;-72
2022/10/20 07:04:27;;;;;;;10.93;5.57;;;;;;;;;;5154183;27;20447;-71
2022/10/20 07:06:54;;;;;;;14.10;10.70;;;;;;;;;;5154985;27;20476;-71
2022/10/20 07:09:23;;;;;;;10.77;7.73;;;;;;;;;;5154802;27;20447;-71
2022/10/20 07:11:53;;;;;;;26.67;21.13;;;;;;;;;;5154631;27;20463;-71
2022/10/20 07:14:20;;;;;;;11.03;6.90;;;;;;;;;;5153847;27;20511;-71
2022/10/20 07:16:48;;;;;;;15.07;11.30;;;;;;;;;;5154598;27;20455;-71
2022/10/20 07:19:15;;;;;;;11.47;8.50;;;;;;;;;;5154637;27;20447;-70
2022/10/20 07:21:42;;;;;;;10.30;7.10;;;;;;;;;;5154578;27;20538;-71
2022/10/20 07:24:09;;;;;;;11.80;7.37;;;;;;;;;;5153691;27;20452;-71
2022/10/20 07:26:42;;;;;;;15.17;8.03;;;;;;;;;;5154377;27;20475;-71
2022/10/20 07:29:10;;;;;;;19.53;7.10;;;;;;;;;;5154288;27;20451;-71
2022/10/20 07:31:38;;;;;;;12.77;7.63;;;;;;;;;;5154373;27;20452;-71
2022/10/20 07:34:06;;;;;;;9.80;6.90;;;;;;;;;;5153577;27;20487;-71
2022/10/20 07:36:34;;;;;;;12.80;6.70;;;;;;;;;;5154171;27;20998;-71
2022/10/20 07:39:02;;;;;;;14.80;6.70;;;;;;;;;;5154274;27;20444;-71
2022/10/20 07:41:30;;;;;;;8.90;6.67;;;;;;;;;;5154044;27;20452;-71
2022/10/20 07:43:58;;;;;;;7.63;5.90;;;;;;;;;;5151571;27;20439;-71
2022/10/20 07:46:26;;;;;;;7.33;5.07;;;;;;;;;;5154080;27;20467;-71
2022/10/20 07:48:53;;;;;;;9.30;6.40;;;;;;;;;;5154090;27;20451;-73
2022/10/20 07:51:28;;;;;;;6.40;5.50;;;;;;;;;;5154138;27;20447;-73
2022/10/20 07:53:57;;;;;;;7.80;4.80;;;;;;;;;;5153485;27;20478;-72
2022/10/20 07:56:25;;;;;;;11.97;6.27;;;;;;;;;;5153789;27;20823;-72
2022/10/20 07:58:52;;;;;;;9.50;4.97;;;;;;;;;;5153949;27;20453;-72
2022/10/20 08:01:21;;;;;;;8.23;5.50;;;;;;;;;;5152871;27;20447;-72
2022/10/20 08:03:48;;;;;;;6.80;5.10;;;;;;;;;;5153330;27;20451;-72
2022/10/20 08:06:16;;;;;;;5.93;5.23;;;;;;;;;;5153767;27;20466;-72
2022/10/20 08:08:43;;;;;;;9.83;6.80;;;;;;;;;;5153631;27;20474;-72
2022/10/20 08:11:11;;;;;;;7.03;5.80;;;;;;;;;;5153767;27;20460;-71
2022/10/20 08:13:39;;;;;;;9.30;4.77;;;;;;;;;;5153012;27;20491;-72
2022/10/20 08:16:07;;;;;;;11.23;6.50;;;;;;;;;;5153712;27;20558;-71
2022/10/20 08:18:35;;;;;;;7.50;5.93;;;;;;;;;;5153546;27;20454;-72
2022/10/20 08:21:10;;;;;;;8.47;5.53;;;;;;;;;;5153635;27;20450;-72
2022/10/20 08:23:38;;;;;;;9.20;7.20;;;;;;;;;;5153162;27;20447;-72
2022/10/20 08:26:06;;;;;;;9.37;5.57;;;;;;;;;;5153565;27;20463;-71
2022/10/20 08:28:33;;;;;;;5.80;5.20;;;;;;;;;;5153828;27;20444;-72
2022/10/20 08:31:02;;;;;;;9.63;5.20;;;;;;;;;;5153807;27;20789;-72
2022/10/20 08:33:29;;;;;;;5.57;5.00;;;;;;;;;;5152830;27;20539;-71
2022/10/20 08:36:01;;;;;;;8.00;5.10;;;;;;;;;;5153566;27;20832;-72
2022/10/20 08:38:28;;;;;;;5.60;4.87;;;;;;;;;;5153582;27;20454;-71
2022/10/20 08:40:55;;;;;;;7.20;6.17;;;;;;;;;;5153691;27;20909;-72
2022/10/20 08:43:22;;;;;;;10.10;5.87;;;;;;;;;;5153333;27;20447;-72
2022/10/20 08:45:49;;;;;;;5.90;5.30;;;;;;;;;;5152895;27;20486;-72
2022/10/20 08:48:19;;;;;;;8.00;6.30;;;;;;;;;;5153417;27;20458;-72
2022/10/20 08:50:47;;;;;;;7.77;5.77;;;;;;;;;;5153421;27;20455;-72
2022/10/20 08:53:15;;;;;;;5.47;4.97;;;;;;;;;;5153428;27;20480;-72
2022/10/20 08:55:44;;;;;;;8.90;5.47;;;;;;;;;;5153168;27;20476;-72
2022/10/20 08:58:13;;;;;;;7.87;5.87;;;;;;;;;;5157233;27;20507;-71
2022/10/20 09:00:40;;;;;;;5.73;5.23;;;;;;;;;;5156099;27;20944;-72
2022/10/20 09:03:14;;;;;;;6.10;4.60;;;;;;;;;;5157227;27;20443;-72
2022/10/20 09:05:42;;;;;;;6.40;4.83;;;;;;;;;;5156669;27;20471;-71
2022/10/20 09:08:09;;;;;;;6.03;4.53;;;;;;;;;;5157245;27;20449;-72
2022/10/20 09:10:40;;;;;;;6.03;4.27;;;;;;;;;;5157020;27;20450;-71
2022/10/20 09:13:11;;;;;;;7.33;5.10;;;;;;;;;;5156826;27;20479;-72
2022/10/20 09:15:39;;;;;;;4.97;4.43;;;;;;;;;;5154153;27;20471;-72
2022/10/20 09:18:08;;;;;;;5.77;4.83;;;;;;;;;;5157095;27;20447;-71
2022/10/20 09:20:39;;;;;;;6.97;4.27;;;;;;;;;;5154343;27;20478;-72
2022/10/20 09:23:06;;;;;;;5.03;4.53;;;;;;;;;;5156767;27;20443;-71
2022/10/20 09:25:33;;;;;;;5.20;4.70;;;;;;;;;;5154153;27;20493;-72
2022/10/20 09:28:02;;;;;;;5.40;4.90;;;;;;;;;;5156662;27;20443;-72
2022/10/20 09:30:33;;;;;;;7.70;4.30;;;;;;;;;;5156597;27;20455;-73
2022/10/20 09:33:02;;;;;;;5.13;3.80;;;;;;;;;;5156468;27;20448;-71
2022/10/20 09:35:31;;;;;;;5.00;4.57;;;;;;;;;;5155717;27;20524;-71
2022/10/20 09:38:00;;;;;;;5.43;4.93;;;;;;;;;;5156404;27;20443;-72
2022/10/20 09:40:27;;;;;;;6.77;4.20;;;;;;;;;;5156385;27;20452;-72
2022/10/20 09:42:56;;;;;;;8.70;6.17;;;;;;;;;;5153907;27;20443;-72
2022/10/20 09:45:27;;;;;;;4.70;4.20;;;;;;;;;;5155626;27;20944;-72
2022/10/20 09:47:57;;;;;;;10.27;5.07;;;;;;;;;;5156563;27;20586;-72
2022/10/20 09:50:26;;;;;;;9.97;5.53;;;;;;;;;;5156360;27;20945;-74
2022/10/20 09:52:53;;;;;;;9.53;4.57;;;;;;;;;;5156249;27;20448;-72
2022/10/20 09:55:25;;;;;;;5.40;4.10;;;;;;;;;;5153960;27;20554;-72
2022/10/20 09:57:54;;;;;;;4.80;4.10;;;;;;;;;;5156098;27;20458;-72
2022/10/20 10:00:27;;;;;;;6.80;4.07;;;;;;;;;;5152967;27;20447;-72
2022/10/20 10:03:11;;;;;;;10.53;4.10;;;;;;;;;;5156054;27;20439;-72
2022/10/20 10:05:38;;;;;;;5.07;4.57;;;;;;;;;;5155211;27;20478;-72
2022/10/20 10:08:06;;;;;;;5.60;5.10;;;;;;;;;;5155953;27;20465;-72
2022/10/20 10:10:33;;;;;;;5.33;4.83;;;;;;;;;;5155815;27;20447;-72
2022/10/20 10:13:03;;;;;;;9.83;4.63;;;;;;;;;;5155772;27;20455;-72
2022/10/20 10:15:33;;;;;;;8.43;5.57;;;;;;;;;;5154830;27;20484;-73
2022/10/20 10:18:01;;;;;;;7.43;5.47;;;;;;;;;;5155742;27;20451;-72
2022/10/20 10:20:35;;;;;;;5.90;4.30;;;;;;;;;;5155710;27;20451;-72
2022/10/20 10:23:20;;;;;;;4.63;3.80;;;;;;;;;;5155797;27;20966;-72
2022/10/20 10:25:47;;;;;;;11.90;5.27;;;;;;;;;;5154881;27;20472;-73
2022/10/20 10:28:21;;;;;;;8.03;5.47;;;;;;;;;;5155499;27;20447;-72
2022/10/20 10:31:05;;;;;;;6.23;4.60;;;;;;;;;;5153629;27;20967;-72
2022/10/20 10:33:32;;;;;;;6.03;4.67;;;;;;;;;;5154736;27;20487;-72
2022/10/20 10:36:02;;;;;;;8.17;5.20;;;;;;;;;;5152709;27;20467;-72
2022/10/20 10:38:30;;;;;;;4.70;4.23;;;;;;;;;;5155217;27;20962;-72
2022/10/20 10:41:02;;;;;;;6.80;5.13;;;;;;;;;;5155258;27;20454;-72
2022/10/20 10:43:33;;;;;;;7.10;5.77;;;;;;;;;;5153328;27;20495;-73
2022/10/20 10:46:06;;;;;;;5.67;4.37;;;;;;;;;;5155138;27;20795;-72
2022/10/20 10:48:51;;;;;;;9.60;4.73;;;;;;;;;;5155137;27;20451;-73
2022/10/20 10:51:22;;;;;;;5.33;4.83;;;;;;;;;;5155025;27;20447;-72
2022/10/20 10:53:53;;;;;;;5.30;4.67;;;;;;;;;;5154080;27;21063;-72
2022/10/20 10:56:25;;;;;;;5.70;4.40;;;;;;;;;;5155028;27;20481;-72
2022/10/20 10:58:57;;;;;;;6.30;4.57;;;;;;;;;;5154941;27;20461;-72
2022/10/20 11:01:40;;;;;;;5.17;4.57;;;;;;;;;;5153452;27;20907;-74
2022/10/20 11:04:26;;;;;;;5.27;4.00;;;;;;;;;;5154359;27;20447;-73
2022/10/20 11:06:56;;;;;;;9.33;5.13;;;;;;;;;;5153695;27;20468;-73
2022/10/20 11:09:28;;;;;;;5.40;4.30;;;;;;;;;;5155387;27;20454;-73
2022/10/20 11:12:11;;;;;;;9.30;4.50;;;;;;;;;;5154944;27;20463;-73
2022/10/20 11:14:45;;;;;;;5.10;4.60;;;;;;;;;;5154608;27;20854;-73
2022/10/20 11:17:21;;;;;;;5.10;4.20;;;;;;;;;;5153411;27;20821;-73
2022/10/20 11:19:57;;;;;;;4.77;4.17;;;;;;;;;;5154726;27;20443;-73
2022/10/20 11:22:30;;;;;;;8.97;5.10;;;;;;;;;;5155057;27;20455;-73
2022/10/20 11:25:03;;;;;;;7.40;4.40;;;;;;;;;;5154698;27;20470;-73
2022/10/20 11:27:31;;;;;;;5.67;4.77;;;;;;;;;;5154935;27;20460;-73
2022/10/20 11:30:04;;;;;;;6.57;4.87;;;;;;;;;;5155020;27;20439;-73
2022/10/20 11:32:37;;;;;;;6.10;4.20;;;;;;;;;;5154808;27;20459;-73
2022/10/20 11:35:06;;;;;;;7.20;5.53;;;;;;;;;;5154137;27;20498;-73
2022/10/20 11:37:38;;;;;;;5.03;4.63;;;;;;;;;;5154784;27;20443;-73
2022/10/20 11:40:13;;;;;;;5.87;4.53;;;;;;;;;;5154738;27;20444;-73
2022/10/20 11:42:42;;;;;;;6.50;4.30;;;;;;;;;;5152195;27;20454;-73
2022/10/20 11:45:22;;;;;;;5.07;4.57;;;;;;;;;;5153755;27;20471;-74
2022/10/20 11:47:52;;;;;;;5.30;4.67;;;;;;;;;;5154595;27;20533;-73
2022/10/20 11:50:20;;;;;;;9.90;4.80;;;;;;;;;;5152359;27;20462;-74
2022/10/20 11:52:52;;;;;;;8.33;7.30;;;;;;;;;;5154484;27;20444;-73
2022/10/20 11:55:23;;;;;;;18.47;13.50;;;;;;;;;;5153862;27;20490;-73
2022/10/20 11:57:54;;;;;;;46.73;27.40;;;;;;;;;;5154469;27;20457;-73
2022/10/20 12:00:23;;;;;;;6.77;4.70;;;;;;;;;;5152997;27;20815;-73
2022/10/20 12:03:01;;;;;;;31.30;18.33;;;;;;;;;;5154666;27;20454;-73
2022/10/20 12:05:40;;;;;;;18.20;11.97;;;;;;;;;;5153761;27;20473;-73
2022/10/20 12:08:12;;;;;;;6.23;5.63;;;;;;;;;;5154563;27;20940;-73
2022/10/20 12:10:44;;;;;;;9.47;6.03;;;;;;;;;;5154302;27;20456;-73
2022/10/20 12:13:27;;;;;;;8.07;5.60;;;;;;;;;;5154877;27;20530;-73
2022/10/20 12:15:54;;;;;;;10.03;6.20;;;;;;;;;;5154326;27;21006;-73
2022/10/20 12:18:26;;;;;;;15.10;9.90;;;;;;;;;;5154207;27;20910;-73
2022/10/20 12:20:55;;;;;;;23.50;12.83;;;;;;;;;;5152571;27;20451;-73
2022/10/20 12:23:48;;;;;;;13.97;9.33;;;;;;;;;;5154145;27;20455;-73
2022/10/20 12:26:42;;;;;;;9.90;7.07;;;;;;;;;;5134377;27;20940;-73
2022/10/20 12:29:27;;;;;;;31.80;18.47;;;;;;;;;;5105755;27;20456;-73
2022/10/20 12:32:13;;;;;;;13.80;9.60;;;;;;;;;;5156783;27;20450;-73
2022/10/20 12:34:42;;;;;;;9.13;7.70;;;;;;;;;;5157566;27;20562;-73
2022/10/20 12:37:16;;;;;;;8.70;6.23;;;;;;;;;;5158330;27;20447;-73
2022/10/20 12:39:44;;;;;;;5.40;4.90;;;;;;;;;;5158174;27;20443;-73
2022/10/20 12:42:19;;;;;;;23.83;14.63;;;;;;;;;;5158183;27;20447;-73
2022/10/20 12:44:46;;;;;;;27.07;12.67;;;;;;;;;;5157183;27;20451;-73
2022/10/20 12:47:19;;;;;;;7.97;5.43;;;;;;;;;;5158225;27;20447;-73
2022/10/20 12:49:53;;;;;;;9.47;6.17;;;;;;;;;;5157989;27;20451;-73
2022/10/20 12:52:21;;;;;;;6.07;5.47;;;;;;;;;;5158113;27;20850;-73
2022/10/20 12:54:54;;;;;;;14.27;8.10;;;;;;;;;;5157165;27;20485;-73
2022/10/20 12:57:27;;;;;;;10.03;7.43;;;;;;;;;;5158101;27;20447;-72
2022/10/20 12:59:54;;;;;;;16.93;10.80;;;;;;;;;;5156420;27;20812;-73
2022/10/20 13:02:40;;;;;;;7.07;5.80;;;;;;;;;;5157890;27;20432;-73
2022/10/20 13:05:40;;;;;;;7.87;5.53;;;;;;;;;;5157159;27;20979;-73
2022/10/20 13:08:31;;;;;;;18.20;9.23;;;;;;;;;;5157821;27;20435;-73
2022/10/20 13:11:17;;;;;;;7.40;6.47;;;;;;;;;;5136912;27;20948;-73
2022/10/20 13:13:54;;;;;;;10.13;6.23;;;;;;;;;;5156912;27;20821;-73
2022/10/20 13:16:22;;;;;;;7.13;6.10;;;;;;;;;;5157525;27;20483;-72
2022/10/20 13:18:50;;;;;;;17.60;9.27;;;;;;;;;;5157361;27;20454;-73
2022/10/20 13:21:23;;;;;;;6.37;5.47;;;;;;;;;;5157524;27;20458;-73
2022/10/20 13:23:55;;;;;;;8.10;5.50;;;;;;;;;;5156842;27;20457;-73
2022/10/20 13:26:24;;;;;;;18.63;12.40;;;;;;;;;;5157360;27;20468;-72
2022/10/20 13:28:52;;;;;;;14.77;8.90;;;;;;;;;;5157273;27;20450;-73
2022/10/20 13:31:23;;;;;;;14.83;9.70;;;;;;;;;;5157184;27;20466;-73
2022/10/20 13:33:55;;;;;;;14.00;8.40;;;;;;;;;;5156509;27;20462;-73
2022/10/20 13:36:29;;;;;;;13.17;7.40;;;;;;;;;;5157111;27;20510;-73
2022/10/20 13:39:01;;;;;;;10.07;7.03;;;;;;;;;;5157198;27;20538;-73
2022/10/20 13:41:32;;;;;;;10.20;6.80;;;;;;;;;;5156747;27;20454;-73
2022/10/20 13:44:03;;;;;;;7.83;5.90;;;;;;;;;;5154425;27;20463;-73
2022/10/20 13:46:43;;;;;;;15.63;8.83;;;;;;;;;;5156951;27;20856;-73
2022/10/20 13:49:17;;;;;;;6.60;5.93;;;;;;;;;;5156903;27;20447;-73
2022/10/20 13:51:47;;;;;;;8.70;6.90;;;;;;;;;;5156985;27;20428;-73
2022/10/20 13:54:21;;;;;;;5.77;5.13;;;;;;;;;;5156170;27;20443;-73
2022/10/20 13:56:48;;;;;;;7.50;6.53;;;;;;;;;;5156723;27;20487;-73
2022/10/20 13:59:22;;;;;;;11.87;6.20;;;;;;;;;;5156793;27;20970;-73
2022/10/20 14:01:51;;;;;;;6.70;5.43;;;;;;;;;;5155696;27;20485;-73
2022/10/20 14:04:26;;;;;;;8.40;5.67;;;;;;;;;;5156151;27;20447;-73
2022/10/20 14:06:54;;;;;;;8.27;5.80;;;;;;;;;;5156700;27;20463;-73
2022/10/20 14:09:22;;;;;;;7.43;5.80;;;;;;;;;;5156629;27;21032;-73
2022/10/20 14:11:51;;;;;;;8.53;5.93;;;;;;;;;;5156523;27;20882;-73
2022/10/20 14:14:22;;;;;;;10.53;5.47;;;;;;;;;;5155919;27;20816;-73
2022/10/20 14:16:52;;;;;;;10.37;5.83;;;;;;;;;;5156314;27;20463;-73
2022/10/20 14:19:22;;;;;;;9.20;6.73;;;;;;;;;;5156209;27;20451;-73
2022/10/20 14:21:50;;;;;;;7.63;5.50;;;;;;;;;;5156210;27;20519;-73
2022/10/20 14:24:21;;;;;;;6.63;5.63;;;;;;;;;;5155839;27;20451;-73
2022/10/20 14:26:49;;;;;;;18.63;5.93;;;;;;;;;;5156156;27;20479;-72
2022/10/20 14:29:17;;;;;;;7.47;5.83;;;;;;;;;;5156084;27;20798;-73
2022/10/20 14:31:45;;;;;;;8.30;5.97;;;;;;;;;;5155934;27;20451;-73
2022/10/20 14:34:23;;;;;;;10.70;6.50;;;;;;;;;;5155190;27;20448;-73
2022/10/20 14:36:51;;;;;;;8.17;5.47;;;;;;;;;;5155903;27;20459;-73
2022/10/20 14:39:25;;;;;;;10.20;5.73;;;;;;;;;;5156023;27;20963;-73
2022/10/20 14:41:52;;;;;;;7.40;6.00;;;;;;;;;;5156049;27;20946;-73
2022/10/20 14:44:22;;;;;;;8.10;6.27;;;;;;;;;;5152707;27;20442;-73
2022/10/20 14:46:52;;;;;;;10.07;5.93;;;;;;;;;;5155826;27;20462;-73
2022/10/20 14:49:22;;;;;;;22.77;10.60;;;;;;;;;;5155815;27;20547;-73